createdAt,value
2019-04-04T00:04:08.849Z,12.7
2019-04-04T00:09:08.797Z,12.8
2019-04-04T00:14:08.774Z,12.9
2019-04-04T00:19:08.796Z,12.9
2019-04-04T00:24:09.845Z,12.9
2019-04-04T00:29:08.758Z,12.9
2019-04-04T00:34:08.786Z,12.9
2019-04-04T00:39:10.124Z,13
2019-04-04T00:44:08.776Z,12.9
2019-04-04T00:49:08.774Z,12.9
2019-04-04T00:54:08.744Z,12.9
2019-04-04T00:59:08.773Z,12.9
2019-04-04T01:04:08.758Z,12.9
2019-04-04T01:09:13.970Z,12.6
2019-04-04T01:14:08.762Z,12.4
2019-04-04T01:19:10.555Z,12.2
2019-04-04T01:24:08.727Z,12.4
2019-04-04T01:29:11.281Z,12.5
2019-04-04T01:34:08.716Z,12.6
2019-04-04T01:39:08.688Z,12.5
2019-04-04T01:44:11.894Z,12.6
2019-04-04T01:49:08.736Z,12.6
2019-04-04T01:54:08.731Z,12.6
2019-04-04T01:59:13.115Z,12.6
2019-04-04T02:04:08.654Z,12.5
2019-04-04T02:09:08.674Z,12.6
2019-04-04T02:14:12.630Z,12.5
2019-04-04T02:19:08.692Z,12.5
2019-04-04T02:24:08.659Z,12.5
2019-04-04T02:29:11.831Z,12.5
2019-04-04T02:34:08.658Z,12.5
2019-04-04T02:39:08.686Z,12.2
2019-04-04T02:44:08.644Z,12
2019-04-04T02:49:08.668Z,12
2019-04-04T02:54:08.768Z,12.1
2019-04-04T02:59:08.635Z,12.2
2019-04-04T03:04:08.638Z,12.3
2019-04-04T03:09:10.830Z,12.3
2019-04-04T03:14:08.631Z,12.3
2019-04-04T03:19:11.526Z,12.4
2019-04-04T03:24:08.706Z,12.4
2019-04-04T03:29:11.152Z,12.3
2019-04-04T03:34:13.527Z,12.3
2019-04-04T03:39:08.566Z,12.3
2019-04-04T03:44:08.564Z,12.3
2019-04-04T03:49:08.769Z,12.3
2019-04-04T03:54:08.612Z,12.4
2019-04-04T03:59:08.571Z,12.4
2019-04-04T04:04:08.642Z,12.4
2019-04-04T04:09:08.562Z,12.5
2019-04-04T04:14:08.537Z,12.5
2019-04-04T04:19:08.578Z,12.5
2019-04-04T04:24:08.548Z,12.5
2019-04-04T04:29:08.503Z,12.6
2019-04-04T04:34:08.549Z,12.5
2019-04-04T04:39:08.525Z,12.3
2019-04-04T04:44:08.563Z,12.3
2019-04-04T04:49:08.553Z,12.4
2019-04-04T04:54:08.531Z,12.6
2019-04-04T04:59:14.088Z,12.7
2019-04-04T05:04:08.547Z,12.8
2019-04-04T05:09:08.517Z,12.9
2019-04-04T05:14:08.455Z,13
2019-04-04T05:19:08.464Z,13
2019-04-04T05:24:08.520Z,13.1
2019-04-04T05:29:08.499Z,13.2
2019-04-04T05:34:08.466Z,13.2
2019-04-04T05:39:08.480Z,13.3
2019-04-04T05:44:10.530Z,13.3
2019-04-04T05:49:08.777Z,13.1
2019-04-04T05:54:08.630Z,13
2019-04-04T05:59:08.545Z,13
2019-04-04T06:04:08.471Z,13.2
2019-04-04T06:09:08.518Z,13.4
2019-04-04T06:14:08.443Z,13.5
2019-04-04T06:19:08.420Z,13.6
2019-04-04T06:24:08.382Z,13.8
2019-04-04T06:29:08.383Z,13.9
2019-04-04T06:34:11.048Z,13.9
2019-04-04T06:39:08.400Z,14
2019-04-04T06:44:08.374Z,14.1
2019-04-04T06:49:08.384Z,14.2
2019-04-04T06:54:08.379Z,14.3
2019-04-04T06:59:12.756Z,14.3
2019-04-04T07:04:08.376Z,14.4
2019-04-04T07:09:08.383Z,14.5
2019-04-04T07:14:08.366Z,14.5
2019-04-04T07:19:08.584Z,14.6
2019-04-04T07:24:08.334Z,14.6
2019-04-04T07:29:08.339Z,14.6
2019-04-04T07:34:08.349Z,14.7
2019-04-04T07:39:08.387Z,14.7
2019-04-04T07:44:08.338Z,14.8
2019-04-04T07:49:08.335Z,14.8
2019-04-04T07:54:08.419Z,14.8
2019-04-04T07:59:08.311Z,14.9
2019-04-04T08:04:08.326Z,15
2019-04-04T08:09:08.303Z,15
2019-04-04T08:14:08.287Z,15
2019-04-04T08:19:08.318Z,15.1
2019-04-04T08:24:08.290Z,15.1
2019-04-04T08:29:08.283Z,15.1
2019-04-04T08:34:08.315Z,15.1
2019-04-04T08:39:09.482Z,15.2
2019-04-04T08:44:08.256Z,15.2
2019-04-04T08:49:08.229Z,15.3
2019-04-04T08:54:08.279Z,15.2
2019-04-04T08:59:08.257Z,15.3
2019-04-04T09:04:08.221Z,15.2
2019-04-04T09:09:08.246Z,15.3
2019-04-04T09:14:08.263Z,15.3
2019-04-04T09:19:08.229Z,15.5
2019-04-04T09:24:08.285Z,15.5
2019-04-04T09:29:08.247Z,15.6
2019-04-04T09:34:08.233Z,15.8
2019-04-04T09:39:08.182Z,15.9
2019-04-04T09:44:08.176Z,16.1
2019-04-04T09:49:08.194Z,16.3
2019-04-04T09:54:08.209Z,16.5
2019-04-04T09:59:11.237Z,16.7
2019-04-04T10:04:08.207Z,16.9
2019-04-04T10:09:17.214Z,17.1
2019-04-04T10:14:08.203Z,17.2
2019-04-04T10:19:08.173Z,17.4
2019-04-04T10:24:08.136Z,17.5
2019-04-04T10:29:08.219Z,17.7
2019-04-04T10:34:08.118Z,17.7
2019-04-04T10:39:08.134Z,17.7
2019-04-04T10:44:08.231Z,17.9
2019-04-04T10:53:12.001Z,18.6
2019-04-04T10:58:12.051Z,19
2019-04-04T11:03:16.346Z,19.3
2019-04-04T11:08:12.038Z,19.6
2019-04-04T11:13:12.150Z,19.9
2019-04-04T11:18:12.546Z,20.2
2019-04-04T11:23:12.296Z,20.6
2019-04-04T11:28:12.033Z,20.9
2019-04-04T11:33:12.453Z,21.3
2019-04-04T11:38:13.157Z,21.2
2019-04-04T11:43:12.059Z,21.4
2019-04-04T11:48:12.109Z,21.9
2019-04-04T11:53:11.981Z,22.4
2019-04-04T11:58:11.956Z,22.9
2019-04-04T12:03:11.994Z,23.4
2019-04-04T12:08:12.855Z,23.9
2019-04-04T12:13:12.760Z,24.4
2019-04-04T12:18:12.823Z,24.9
2019-04-04T12:23:12.745Z,25.5
2019-04-04T12:28:12.715Z,26.3
2019-04-04T12:33:12.704Z,28.3
2019-04-04T12:38:12.782Z,30.1
2019-04-04T12:43:12.722Z,31.5
2019-04-04T12:48:12.740Z,32.5
2019-04-04T12:53:12.782Z,33.1
2019-04-04T12:58:12.749Z,33.4
2019-04-04T13:03:12.701Z,33.6
2019-04-04T13:08:12.750Z,33.4
2019-04-04T13:13:12.714Z,32.7
2019-04-04T13:18:12.667Z,31.8
2019-04-04T13:23:12.745Z,31.3
2019-04-04T13:28:12.658Z,31.1
2019-04-04T13:33:12.730Z,30.9
2019-04-04T13:38:12.678Z,30.8
2019-04-04T13:43:12.653Z,30.8
2019-04-04T13:48:13.432Z,30.8
2019-04-04T13:53:12.710Z,30.1
2019-04-04T13:58:12.633Z,28.2
2019-04-04T14:03:12.697Z,26.7
2019-04-04T14:08:14.696Z,25.6
2019-04-04T14:13:14.964Z,24.7
2019-04-04T14:18:12.633Z,24
2019-04-04T14:23:12.621Z,23.5
2019-04-04T14:28:12.647Z,23
2019-04-04T14:33:12.612Z,22.6
2019-04-04T14:38:12.625Z,22.3
2019-04-04T14:43:12.626Z,22
2019-04-04T14:48:12.617Z,21.8
2019-04-04T14:53:12.624Z,21.6
2019-04-04T14:58:12.568Z,21.3
2019-04-04T15:03:12.600Z,21.1
2019-04-04T15:08:12.604Z,21
2019-04-04T15:13:12.590Z,20.8
2019-04-04T15:18:12.601Z,20.6
2019-04-04T15:23:13.375Z,20.4
2019-04-04T15:28:13.343Z,20.3
2019-04-04T15:33:13.380Z,20.2
2019-04-04T15:38:13.353Z,20
2019-04-04T15:43:13.355Z,19.9
2019-04-04T15:48:13.304Z,19.7
2019-04-04T15:53:17.928Z,19.6
2019-04-04T15:58:14.521Z,19.4
2019-04-04T16:03:13.297Z,19.7
2019-04-04T16:08:13.336Z,20
2019-04-04T16:13:13.316Z,20.1
2019-04-04T16:18:13.303Z,20.1
2019-04-04T16:23:13.340Z,19.8
2019-04-04T16:28:13.283Z,19.2
2019-04-04T16:33:18.193Z,18.8
2019-04-04T16:38:13.311Z,18.5
2019-04-04T16:43:13.279Z,18.2
2019-04-04T16:48:14.269Z,18
2019-04-04T16:53:13.261Z,17.9
2019-04-04T16:58:14.099Z,17.8
2019-04-04T17:03:14.054Z,17.8
2019-04-04T17:08:14.023Z,17.7
2019-04-04T17:13:14.030Z,17.6
2019-04-04T17:18:13.979Z,17.5
2019-04-04T17:23:13.995Z,17.5
2019-04-04T17:28:14.583Z,17.4
2019-04-04T17:33:14.010Z,17.3
2019-04-04T17:38:13.966Z,17.3
2019-04-04T17:43:14.014Z,17.2
2019-04-04T17:48:14.222Z,17.2
2019-04-04T17:53:14.456Z,17.1
2019-04-04T17:58:13.991Z,17
2019-04-04T18:03:13.965Z,17
2019-04-04T18:08:13.989Z,16.9
2019-04-04T18:13:13.955Z,16.9
2019-04-04T18:18:13.952Z,16.8
2019-04-04T18:23:15.396Z,16.7
2019-04-04T18:28:13.982Z,16.8
2019-04-04T18:33:14.068Z,16.7
2019-04-04T18:38:13.944Z,16.6
2019-04-04T18:43:13.954Z,16.6
2019-04-04T18:48:13.908Z,16.5
2019-04-04T18:53:13.893Z,16.5
2019-04-04T18:58:13.949Z,16.5
2019-04-04T19:03:13.896Z,16.4
2019-04-04T19:08:13.890Z,16.4
2019-04-04T19:13:14.050Z,16.3
2019-04-04T19:18:13.895Z,16.3
2019-04-04T19:23:13.871Z,16.2
2019-04-04T19:40:45.712Z,16.2
2019-04-04T19:45:45.664Z,16.2
2019-04-04T19:50:45.624Z,16.2
2019-04-04T19:55:45.676Z,16.2
2019-04-04T20:00:45.613Z,16.2
2019-04-04T20:05:45.609Z,16.1
2019-04-04T20:10:45.668Z,16
2019-04-04T20:15:45.584Z,15.9
2019-04-04T20:20:45.581Z,15.9
2019-04-04T20:25:45.613Z,15.8
2019-04-04T20:30:45.712Z,15.8
2019-04-04T20:35:45.595Z,15.8
2019-04-04T20:40:45.630Z,15.7
2019-04-04T20:45:45.565Z,15.7
2019-04-04T20:50:45.650Z,15.7
2019-04-04T20:55:45.577Z,15.6
2019-04-04T21:00:45.579Z,15.6
2019-04-04T21:05:45.546Z,15.6
2019-04-04T21:10:45.571Z,15.5
2019-04-04T21:15:45.554Z,15.5
2019-04-04T21:20:45.512Z,15.4
2019-04-04T21:25:45.544Z,15.4
2019-04-04T21:30:45.580Z,15.4
2019-04-04T21:35:45.835Z,15.4
2019-04-04T21:40:45.630Z,15.3
2019-04-04T21:45:45.574Z,15.3
2019-04-04T21:50:47.847Z,15.2
2019-04-04T21:55:45.528Z,15.2
2019-04-04T22:00:45.496Z,15.2
2019-04-04T22:05:45.534Z,15.1
2019-04-04T22:10:45.495Z,15.1
2019-04-04T22:15:45.500Z,15
2019-04-04T22:20:45.508Z,15
2019-04-04T22:25:45.466Z,15
2019-04-04T22:30:45.483Z,15
2019-04-04T22:35:45.537Z,14.9
2019-04-04T22:40:45.444Z,14.9
2019-04-04T22:45:45.446Z,14.9
2019-04-04T22:50:45.451Z,14.8
2019-04-04T22:55:45.456Z,14.8
2019-04-04T23:00:45.434Z,14.8
2019-04-04T23:05:45.478Z,14.8
2019-04-04T23:10:45.443Z,14.7
2019-04-04T23:15:45.435Z,14.8
2019-04-04T23:20:45.400Z,14.8
2019-04-04T23:25:45.413Z,14.8
2019-04-04T23:30:45.450Z,14.8
2019-04-04T23:35:45.405Z,14.8
2019-04-04T23:40:45.375Z,14.7
2019-04-04T23:45:45.383Z,14.7
2019-04-04T23:50:45.426Z,14.7
2019-04-04T23:55:45.391Z,14.7
